Thousand Palms, CA

1:08 AM PDT on September 23, 2014 (GMT -0700)
Twentynine Palms Expeditionary Air Field | Change Station
CLOSE
Current Station
Airport
Location: Twentynine Palms,
Elevation: 2054 ft
Nearby Weather Stations

Elev 2054 ft 34.30 °N, 116.16 °W | Updated 12 minutes ago

Clear
Clear
77 °F
Feels Like 77 °F
N
0
Wind Variable Wind from North

Today
High -- | Low -- °F
--% Chance of Precip.
Yesterday
High -- | Low -- °F
Precip. -- in
6:34 AM 6:40 PM
Waning Crescent, 1% visible
Pressure 29.94 in
Visibility 10.0 miles
Clouds Clear
Dew Point 41 °F
Humidity 28%
Rainfall 0.00 in
Snow Depth Not available.
UV 0 out of 12
Pollen 5.60 out of 12
Ozone Good
Flu Activity Not available.
METAR KNXP 230756Z AUTO 00000KT 10SM CLR 25/05 A3005 RMK AO2 SLP138 T02500050 403560189

More Conditions Fewer Conditions

Pressure 29.94 in
Visibility 10.0 miles
Clouds Clear
Dew Point 41 °F
Humidity 28%
Rainfall 0.00 in
Snow Depth Not available.
UV 0 out of 12
Pollen 5.60 out of 12
Ozone Good
Flu Activity Not available.
METAR KNXP 230756Z AUTO 00000KT 10SM CLR 25/05 A3005 RMK AO2 SLP138 T02500050 403560189

More Conditions Fewer Conditions

10-Day Weather Forecast

Almanac

Astronomy

Sep. 23, 2014 Rise Set
Actual Time 6:34 AM PDT 6:40 PM PDT
Civil Twilight 6:09 AM PDT 7:05 PM PDT
Nautical Twilight 5:40 AM PDT 7:34 PM PDT
Astronomical Twilight 5:11 AM PDT 8:03 PM PDT
Moon 6:03 AM PDT 6:22 PM PDT
Length of Visible Light 12h 56m
Length of Day
12h 06m
Tomorrow will be 2m 6s shorter.
Waning Crescent, 1% of the Moon is Illuminated
Today
Waning Crescent
Sep 24
New
Oct 1
First Quarter
Oct 8
Full
Oct 15
Last Quarter

Today's Extremes

State Highs State Lows

Community

WunderPhotos

Upload Photos

1,755,608 photos uploaded!

Nearby

Air Quality

  Air Quality AQ Index Pollutant
Yesterday Moderate
PM10
Yesterday Moderate
OZONE
Current Good
OZONE
Tuesday Moderate
OZONE
Tuesday Good
PM10
Tuesday Good
CO
Tuesday Good
NO2

Snow Depth

Station Depth Elevation
Burnside Lake 0 in 8139 ft
Leavitt Meadows 1 in 7200 ft
Sonora Pass 0 in 8800 ft
Leavitt Lake 1 in 9400 ft
Heavenly Valley 0 in 8850 ft

Earthquake Activity

City Distance Mag. Time & Date
Big Bear Lake, California 49 miles 2.5 7:26 AM PDT
2014-09-22
Borrego Springs, California 45 miles 2.6 7:34 AM PDT
2014-09-21
Minimum magnitude displayed is 2.5.

Coastal Water Temperatures

Place Temperature
No Stations Reporting

Nearby Weather Stations